sensor_id;sensor_type;location;lat;lon;timestamp;temperature;humidity
52963;DHT22;38827;53.024;6.596;2023-05-14T00:01:37;12.90;72.40
52963;DHT22;38827;53.024;6.596;2023-05-14T00:04:03;12.90;72.50
52963;DHT22;38827;53.024;6.596;2023-05-14T00:06:28;12.90;72.50
52963;DHT22;38827;53.024;6.596;2023-05-14T00:08:54;12.90;72.50
52963;DHT22;38827;53.024;6.596;2023-05-14T00:11:20;12.90;72.50
52963;DHT22;38827;53.024;6.596;2023-05-14T00:13:46;12.90;72.60
52963;DHT22;38827;53.024;6.596;2023-05-14T00:16:11;12.90;72.70
52963;DHT22;38827;53.024;6.596;2023-05-14T00:18:37;12.90;72.70
52963;DHT22;38827;53.024;6.596;2023-05-14T00:21:03;12.90;72.70
52963;DHT22;38827;53.024;6.596;2023-05-14T00:23:29;12.90;72.80
52963;DHT22;38827;53.024;6.596;2023-05-14T00:25:54;12.80;72.80
52963;DHT22;38827;53.024;6.596;2023-05-14T00:28:20;12.90;72.90
52963;DHT22;38827;53.024;6.596;2023-05-14T00:30:46;12.90;72.90
52963;DHT22;38827;53.024;6.596;2023-05-14T00:33:14;12.90;73.00
52963;DHT22;38827;53.024;6.596;2023-05-14T00:35:40;12.80;73.00
52963;DHT22;38827;53.024;6.596;2023-05-14T00:38:06;12.80;73.10
52963;DHT22;38827;53.024;6.596;2023-05-14T00:40:31;12.80;73.30
52963;DHT22;38827;53.024;6.596;2023-05-14T00:42:57;12.80;73.30
52963;DHT22;38827;53.024;6.596;2023-05-14T00:45:23;12.70;73.40
52963;DHT22;38827;53.024;6.596;2023-05-14T00:47:49;12.70;73.40
52963;DHT22;38827;53.024;6.596;2023-05-14T00:50:15;12.70;73.60
52963;DHT22;38827;53.024;6.596;2023-05-14T00:52:42;12.60;73.70
52963;DHT22;38827;53.024;6.596;2023-05-14T00:55:08;12.60;73.70
52963;DHT22;38827;53.024;6.596;2023-05-14T00:57:36;12.60;73.70
52963;DHT22;38827;53.024;6.596;2023-05-14T01:00:03;12.60;73.80
52963;DHT22;38827;53.024;6.596;2023-05-14T01:02:29;12.50;74.00
52963;DHT22;38827;53.024;6.596;2023-05-14T01:04:54;12.50;74.10
52963;DHT22;38827;53.024;6.596;2023-05-14T01:07:42;12.40;74.10
52963;DHT22;38827;53.024;6.596;2023-05-14T01:10:17;12.40;74.00
52963;DHT22;38827;53.024;6.596;2023-05-14T01:15:32;12.30;74.20
52963;DHT22;38827;53.024;6.596;2023-05-14T01:18:04;12.30;74.50
52963;DHT22;38827;53.024;6.596;2023-05-14T01:20:31;12.20;74.80
52963;DHT22;38827;53.024;6.596;2023-05-14T01:22:57;12.20;74.80
52963;DHT22;38827;53.024;6.596;2023-05-14T01:25:22;12.10;75.00
52963;DHT22;38827;53.024;6.596;2023-05-14T01:27:56;12.10;75.10
52963;DHT22;38827;53.024;6.596;2023-05-14T01:30:30;12.10;75.30
52963;DHT22;38827;53.024;6.596;2023-05-14T01:32:59;12.00;74.90
52963;DHT22;38827;53.024;6.596;2023-05-14T01:35:29;12.00;75.50
52963;DHT22;38827;53.024;6.596;2023-05-14T01:38:00;12.00;75.70
52963;DHT22;38827;53.024;6.596;2023-05-14T01:40:27;12.00;75.80
52963;DHT22;38827;53.024;6.596;2023-05-14T01:42:53;11.90;75.80
52963;DHT22;38827;53.024;6.596;2023-05-14T01:45:20;11.90;75.90
52963;DHT22;38827;53.024;6.596;2023-05-14T01:47:45;11.90;76.00
52963;DHT22;38827;53.024;6.596;2023-05-14T01:50:11;11.90;76.10
52963;DHT22;38827;53.024;6.596;2023-05-14T01:52:38;11.80;76.30
52963;DHT22;38827;53.024;6.596;2023-05-14T01:55:04;11.80;76.20
52963;DHT22;38827;53.024;6.596;2023-05-14T01:57:30;11.80;75.80
52963;DHT22;38827;53.024;6.596;2023-05-14T01:59:56;11.70;76.30
52963;DHT22;38827;53.024;6.596;2023-05-14T02:02:21;11.70;76.50
52963;DHT22;38827;53.024;6.596;2023-05-14T02:04:47;11.70;76.70
52963;DHT22;38827;53.024;6.596;2023-05-14T02:07:13;11.70;76.80
52963;DHT22;38827;53.024;6.596;2023-05-14T02:09:39;11.70;77.00
52963;DHT22;38827;53.024;6.596;2023-05-14T02:12:06;11.70;77.10
52963;DHT22;38827;53.024;6.596;2023-05-14T02:14:32;11.60;77.20
52963;DHT22;38827;53.024;6.596;2023-05-14T02:16:58;11.60;77.20
52963;DHT22;38827;53.024;6.596;2023-05-14T02:19:24;11.60;77.50
52963;DHT22;38827;53.024;6.596;2023-05-14T02:21:49;11.60;77.70
52963;DHT22;38827;53.024;6.596;2023-05-14T02:24:15;11.60;77.80
52963;DHT22;38827;53.024;6.596;2023-05-14T02:26:41;11.60;78.00
52963;DHT22;38827;53.024;6.596;2023-05-14T02:29:07;11.70;77.90
52963;DHT22;38827;53.024;6.596;2023-05-14T02:31:33;11.70;78.10
52963;DHT22;38827;53.024;6.596;2023-05-14T02:34:00;11.60;78.00
52963;DHT22;38827;53.024;6.596;2023-05-14T02:36:26;11.60;78.10
52963;DHT22;38827;53.024;6.596;2023-05-14T02:38:51;11.60;78.00
52963;DHT22;38827;53.024;6.596;2023-05-14T02:41:17;11.50;78.20
52963;DHT22;38827;53.024;6.596;2023-05-14T02:43:43;11.50;78.40
52963;DHT22;38827;53.024;6.596;2023-05-14T02:46:08;11.50;78.50
52963;DHT22;38827;53.024;6.596;2023-05-14T02:48:34;11.50;78.50
52963;DHT22;38827;53.024;6.596;2023-05-14T02:51:00;11.50;78.60
52963;DHT22;38827;53.024;6.596;2023-05-14T02:53:26;11.50;78.60
52963;DHT22;38827;53.024;6.596;2023-05-14T02:55:52;11.50;78.60
52963;DHT22;38827;53.024;6.596;2023-05-14T02:58:17;11.50;78.70
52963;DHT22;38827;53.024;6.596;2023-05-14T03:00:43;11.50;78.70
52963;DHT22;38827;53.024;6.596;2023-05-14T03:03:09;11.50;78.70
52963;DHT22;38827;53.024;6.596;2023-05-14T03:05:35;11.50;78.80
52963;DHT22;38827;53.024;6.596;2023-05-14T03:08:01;11.50;78.90
52963;DHT22;38827;53.024;6.596;2023-05-14T03:10:26;11.50;79.00
52963;DHT22;38827;53.024;6.596;2023-05-14T03:12:52;11.40;79.10
52963;DHT22;38827;53.024;6.596;2023-05-14T03:15:18;11.50;79.30
52963;DHT22;38827;53.024;6.596;2023-05-14T03:17:43;11.50;79.40
52963;DHT22;38827;53.024;6.596;2023-05-14T03:20:10;11.50;79.40
52963;DHT22;38827;53.024;6.596;2023-05-14T03:22:36;11.50;79.50
52963;DHT22;38827;53.024;6.596;2023-05-14T03:25:02;11.40;79.00
52963;DHT22;38827;53.024;6.596;2023-05-14T03:27:27;11.40;79.20
52963;DHT22;38827;53.024;6.596;2023-05-14T03:29:53;11.40;79.30
52963;DHT22;38827;53.024;6.596;2023-05-14T03:32:19;11.40;79.40
52963;DHT22;38827;53.024;6.596;2023-05-14T03:34:45;11.40;79.50
52963;DHT22;38827;53.024;6.596;2023-05-14T03:37:11;11.40;79.40
52963;DHT22;38827;53.024;6.596;2023-05-14T03:39:37;11.40;79.50
52963;DHT22;38827;53.024;6.596;2023-05-14T03:42:02;11.40;79.60
52963;DHT22;38827;53.024;6.596;2023-05-14T03:44:28;11.40;79.70
52963;DHT22;38827;53.024;6.596;2023-05-14T03:46:54;11.40;79.80
52963;DHT22;38827;53.024;6.596;2023-05-14T03:49:20;11.40;79.90
52963;DHT22;38827;53.024;6.596;2023-05-14T03:51:45;11.30;80.00
52963;DHT22;38827;53.024;6.596;2023-05-14T03:54:11;11.30;80.10
52963;DHT22;38827;53.024;6.596;2023-05-14T03:56:37;11.30;80.20
52963;DHT22;38827;53.024;6.596;2023-05-14T03:59:02;11.30;80.30
52963;DHT22;38827;53.024;6.596;2023-05-14T04:01:28;11.30;80.40
52963;DHT22;38827;53.024;6.596;2023-05-14T04:03:54;11.30;80.50
52963;DHT22;38827;53.024;6.596;2023-05-14T04:06:19;11.30;80.60
52963;DHT22;38827;53.024;6.596;2023-05-14T04:08:45;11.30;80.70
52963;DHT22;38827;53.024;6.596;2023-05-14T04:11:11;11.30;80.80
52963;DHT22;38827;53.024;6.596;2023-05-14T04:13:36;11.30;80.90
52963;DHT22;38827;53.024;6.596;2023-05-14T04:16:02;11.30;80.80
52963;DHT22;38827;53.024;6.596;2023-05-14T04:18:28;11.30;80.80
52963;DHT22;38827;53.024;6.596;2023-05-14T04:20:53;11.30;80.90
52963;DHT22;38827;53.024;6.596;2023-05-14T04:23:20;11.30;81.10
52963;DHT22;38827;53.024;6.596;2023-05-14T04:25:46;11.40;81.20
52963;DHT22;38827;53.024;6.596;2023-05-14T04:28:11;11.40;81.20
52963;DHT22;38827;53.024;6.596;2023-05-14T04:30:37;11.50;81.20
52963;DHT22;38827;53.024;6.596;2023-05-14T04:33:03;11.50;81.10
52963;DHT22;38827;53.024;6.596;2023-05-14T04:35:28;11.50;81.00
52963;DHT22;38827;53.024;6.596;2023-05-14T04:37:54;11.60;80.90
52963;DHT22;38827;53.024;6.596;2023-05-14T04:40:20;11.60;80.80
52963;DHT22;38827;53.024;6.596;2023-05-14T04:42:47;11.70;80.70
52963;DHT22;38827;53.024;6.596;2023-05-14T04:45:12;11.70;80.60
52963;DHT22;38827;53.024;6.596;2023-05-14T04:47:40;11.70;80.60
52963;DHT22;38827;53.024;6.596;2023-05-14T04:50:07;11.80;80.60
52963;DHT22;38827;53.024;6.596;2023-05-14T04:52:34;11.80;80.50
52963;DHT22;38827;53.024;6.596;2023-05-14T04:55:00;11.80;80.60
52963;DHT22;38827;53.024;6.596;2023-05-14T04:57:25;11.90;80.40
52963;DHT22;38827;53.024;6.596;2023-05-14T04:59:51;11.90;80.30
52963;DHT22;38827;53.024;6.596;2023-05-14T05:02:17;11.90;80.30
52963;DHT22;38827;53.024;6.596;2023-05-14T05:04:42;11.90;80.40
52963;DHT22;38827;53.024;6.596;2023-05-14T05:07:08;12.00;80.30
52963;DHT22;38827;53.024;6.596;2023-05-14T05:09:34;12.00;80.30
52963;DHT22;38827;53.024;6.596;2023-05-14T05:11:59;12.00;80.30
52963;DHT22;38827;53.024;6.596;2023-05-14T05:14:26;12.00;80.30
52963;DHT22;38827;53.024;6.596;2023-05-14T05:16:52;12.00;80.30
52963;DHT22;38827;53.024;6.596;2023-05-14T05:19:17;12.00;80.20
52963;DHT22;38827;53.024;6.596;2023-05-14T05:21:46;12.00;80.20
52963;DHT22;38827;53.024;6.596;2023-05-14T05:24:12;12.10;80.20
52963;DHT22;38827;53.024;6.596;2023-05-14T05:26:37;12.10;80.20
52963;DHT22;38827;53.024;6.596;2023-05-14T05:29:04;12.20;80.20
52963;DHT22;38827;53.024;6.596;2023-05-14T05:31:30;12.30;79.90
52963;DHT22;38827;53.024;6.596;2023-05-14T05:33:58;12.30;79.90
52963;DHT22;38827;53.024;6.596;2023-05-14T05:36:24;12.40;79.90
52963;DHT22;38827;53.024;6.596;2023-05-14T05:38:50;12.50;79.70
52963;DHT22;38827;53.024;6.596;2023-05-14T05:41:15;12.60;79.80
52963;DHT22;38827;53.024;6.596;2023-05-14T05:43:41;12.70;79.60
52963;DHT22;38827;53.024;6.596;2023-05-14T05:46:07;12.80;79.40
52963;DHT22;38827;53.024;6.596;2023-05-14T05:48:32;12.90;79.40
52963;DHT22;38827;53.024;6.596;2023-05-14T05:50:58;13.00;79.30
52963;DHT22;38827;53.024;6.596;2023-05-14T05:53:24;13.00;79.20
52963;DHT22;38827;53.024;6.596;2023-05-14T05:55:50;13.20;79.00
52963;DHT22;38827;53.024;6.596;2023-05-14T05:58:17;13.30;78.90
52963;DHT22;38827;53.024;6.596;2023-05-14T06:00:42;13.40;78.80
52963;DHT22;38827;53.024;6.596;2023-05-14T06:03:12;13.50;78.50
52963;DHT22;38827;53.024;6.596;2023-05-14T06:05:38;13.70;78.30
52963;DHT22;38827;53.024;6.596;2023-05-14T06:08:04;13.80;77.90
52963;DHT22;38827;53.024;6.596;2023-05-14T06:10:30;14.00;77.80
52963;DHT22;38827;53.024;6.596;2023-05-14T06:12:55;14.00;77.50
52963;DHT22;38827;53.024;6.596;2023-05-14T06:15:21;14.20;77.30
52963;DHT22;38827;53.024;6.596;2023-05-14T06:17:47;14.30;77.10
52963;DHT22;38827;53.024;6.596;2023-05-14T06:20:13;14.50;76.60
52963;DHT22;38827;53.024;6.596;2023-05-14T06:22:39;14.60;76.30
52963;DHT22;38827;53.024;6.596;2023-05-14T06:25:05;14.70;76.10
52963;DHT22;38827;53.024;6.596;2023-05-14T06:27:30;14.80;76.10
52963;DHT22;38827;53.024;6.596;2023-05-14T06:29:56;15.00;76.10
52963;DHT22;38827;53.024;6.596;2023-05-14T06:32:22;15.10;75.50
52963;DHT22;38827;53.024;6.596;2023-05-14T06:34:47;15.30;75.00
52963;DHT22;38827;53.024;6.596;2023-05-14T06:37:13;15.40;74.40
52963;DHT22;38827;53.024;6.596;2023-05-14T06:39:39;15.50;73.70
52963;DHT22;38827;53.024;6.596;2023-05-14T06:42:05;15.70;73.00
52963;DHT22;38827;53.024;6.596;2023-05-14T06:44:31;15.80;72.60
52963;DHT22;38827;53.024;6.596;2023-05-14T06:46:57;15.90;72.20
52963;DHT22;38827;53.024;6.596;2023-05-14T06:49:22;16.10;71.50
52963;DHT22;38827;53.024;6.596;2023-05-14T06:51:48;16.30;71.00
52963;DHT22;38827;53.024;6.596;2023-05-14T06:54:14;16.40;70.30
52963;DHT22;38827;53.024;6.596;2023-05-14T06:56:39;16.50;70.10
52963;DHT22;38827;53.024;6.596;2023-05-14T06:59:05;16.70;69.50
52963;DHT22;38827;53.024;6.596;2023-05-14T07:01:31;16.90;68.70
52963;DHT22;38827;53.024;6.596;2023-05-14T07:03:56;17.00;68.10
52963;DHT22;38827;53.024;6.596;2023-05-14T07:06:22;17.10;67.70
52963;DHT22;38827;53.024;6.596;2023-05-14T07:08:48;17.20;67.40
52963;DHT22;38827;53.024;6.596;2023-05-14T07:11:14;17.40;66.80
52963;DHT22;38827;53.024;6.596;2023-05-14T07:13:40;17.50;66.20
52963;DHT22;38827;53.024;6.596;2023-05-14T07:16:09;17.60;66.10
52963;DHT22;38827;53.024;6.596;2023-05-14T07:18:34;17.80;65.30
52963;DHT22;38827;53.024;6.596;2023-05-14T07:21:00;18.00;64.70
52963;DHT22;38827;53.024;6.596;2023-05-14T07:23:26;18.10;64.20
52963;DHT22;38827;53.024;6.596;2023-05-14T07:25:51;18.20;63.40
52963;DHT22;38827;53.024;6.596;2023-05-14T07:28:17;18.40;63.30
52963;DHT22;38827;53.024;6.596;2023-05-14T07:30:42;18.50;63.10
52963;DHT22;38827;53.024;6.596;2023-05-14T07:33:08;18.60;62.60
52963;DHT22;38827;53.024;6.596;2023-05-14T07:35:34;18.80;62.00
52963;DHT22;38827;53.024;6.596;2023-05-14T07:37:59;19.00;61.40
52963;DHT22;38827;53.024;6.596;2023-05-14T07:40:25;19.10;60.80
52963;DHT22;38827;53.024;6.596;2023-05-14T07:42:51;19.30;60.10
52963;DHT22;38827;53.024;6.596;2023-05-14T07:45:17;19.50;59.80
52963;DHT22;38827;53.024;6.596;2023-05-14T07:47:43;19.60;58.90
52963;DHT22;38827;53.024;6.596;2023-05-14T07:50:09;19.80;58.30
52963;DHT22;38827;53.024;6.596;2023-05-14T07:52:35;19.90;57.80
52963;DHT22;38827;53.024;6.596;2023-05-14T07:55:02;20.00;57.30
52963;DHT22;38827;53.024;6.596;2023-05-14T07:57:28;19.90;56.90
52963;DHT22;38827;53.024;6.596;2023-05-14T07:59:55;19.90;56.90
52963;DHT22;38827;53.024;6.596;2023-05-14T08:02:21;19.90;56.70
52963;DHT22;38827;53.024;6.596;2023-05-14T08:04:47;19.90;56.40
52963;DHT22;38827;53.024;6.596;2023-05-14T08:07:12;20.00;56.50
52963;DHT22;38827;53.024;6.596;2023-05-14T08:09:38;20.10;56.10
52963;DHT22;38827;53.024;6.596;2023-05-14T08:12:04;20.20;55.80
52963;DHT22;38827;53.024;6.596;2023-05-14T08:14:30;20.30;55.60
52963;DHT22;38827;53.024;6.596;2023-05-14T08:16:56;20.50;55.00
52963;DHT22;38827;53.024;6.596;2023-05-14T08:19:22;20.60;54.90
52963;DHT22;38827;53.024;6.596;2023-05-14T08:21:48;20.60;54.90
52963;DHT22;38827;53.024;6.596;2023-05-14T08:24:13;20.60;54.60
52963;DHT22;38827;53.024;6.596;2023-05-14T08:26:39;20.70;54.60
52963;DHT22;38827;53.024;6.596;2023-05-14T08:29:05;20.90;54.40
52963;DHT22;38827;53.024;6.596;2023-05-14T08:31:30;21.00;54.30
52963;DHT22;38827;53.024;6.596;2023-05-14T08:33:56;21.10;53.90
52963;DHT22;38827;53.024;6.596;2023-05-14T08:36:22;21.20;53.70
52963;DHT22;38827;53.024;6.596;2023-05-14T08:38:50;21.30;53.50
52963;DHT22;38827;53.024;6.596;2023-05-14T08:41:16;21.40;52.90
52963;DHT22;38827;53.024;6.596;2023-05-14T08:46:29;21.50;51.40
52963;DHT22;38827;53.024;6.596;2023-05-14T08:51:41;21.80;51.00
52963;DHT22;38827;53.024;6.596;2023-05-14T08:54:08;22.00;51.10
52963;DHT22;38827;53.024;6.596;2023-05-14T08:56:35;22.20;50.80
52963;DHT22;38827;53.024;6.596;2023-05-14T08:59:03;22.40;50.80
52963;DHT22;38827;53.024;6.596;2023-05-14T09:01:29;22.50;50.30
52963;DHT22;38827;53.024;6.596;2023-05-14T09:03:55;22.50;50.50
52963;DHT22;38827;53.024;6.596;2023-05-14T09:06:21;22.60;50.40
52963;DHT22;38827;53.024;6.596;2023-05-14T09:08:48;22.60;50.50
52963;DHT22;38827;53.024;6.596;2023-05-14T09:11:14;22.60;50.80
52963;DHT22;38827;53.024;6.596;2023-05-14T09:13:39;22.70;50.20
52963;DHT22;38827;53.024;6.596;2023-05-14T09:16:05;22.80;49.50
52963;DHT22;38827;53.024;6.596;2023-05-14T09:18:31;22.90;48.90
52963;DHT22;38827;53.024;6.596;2023-05-14T09:20:57;23.00;48.80
52963;DHT22;38827;53.024;6.596;2023-05-14T09:23:25;23.10;48.60
52963;DHT22;38827;53.024;6.596;2023-05-14T09:25:51;23.30;48.20
52963;DHT22;38827;53.024;6.596;2023-05-14T09:28:17;23.50;47.40
52963;DHT22;38827;53.024;6.596;2023-05-14T09:30:51;23.60;47.50
52963;DHT22;38827;53.024;6.596;2023-05-14T09:33:27;23.80;47.10
52963;DHT22;38827;53.024;6.596;2023-05-14T09:36:00;24.10;46.70
52963;DHT22;38827;53.024;6.596;2023-05-14T09:38:32;24.30;46.60
52963;DHT22;38827;53.024;6.596;2023-05-14T09:40:59;24.50;46.20
52963;DHT22;38827;53.024;6.596;2023-05-14T09:43:25;24.70;45.70
52963;DHT22;38827;53.024;6.596;2023-05-14T09:45:51;25.00;45.20
52963;DHT22;38827;53.024;6.596;2023-05-14T09:48:20;25.30;44.70
52963;DHT22;38827;53.024;6.596;2023-05-14T09:50:46;25.70;43.20
52963;DHT22;38827;53.024;6.596;2023-05-14T09:53:13;26.20;43.00
52963;DHT22;38827;53.024;6.596;2023-05-14T09:55:39;26.60;41.70
52963;DHT22;38827;53.024;6.596;2023-05-14T09:58:04;27.00;40.90
52963;DHT22;38827;53.024;6.596;2023-05-14T10:00:31;27.30;40.10
52963;DHT22;38827;53.024;6.596;2023-05-14T10:02:57;27.70;39.10
52963;DHT22;38827;53.024;6.596;2023-05-14T10:05:23;28.20;40.40
52963;DHT22;38827;53.024;6.596;2023-05-14T10:07:51;28.50;38.90
52963;DHT22;38827;53.024;6.596;2023-05-14T10:10:23;28.90;38.00
52963;DHT22;38827;53.024;6.596;2023-05-14T10:12:54;29.10;37.90
52963;DHT22;38827;53.024;6.596;2023-05-14T10:15:39;29.30;36.90
52963;DHT22;38827;53.024;6.596;2023-05-14T10:18:11;29.60;37.50
52963;DHT22;38827;53.024;6.596;2023-05-14T10:20:40;30.00;36.90
52963;DHT22;38827;53.024;6.596;2023-05-14T10:23:06;30.40;36.40
52963;DHT22;38827;53.024;6.596;2023-05-14T10:25:33;30.70;36.10
52963;DHT22;38827;53.024;6.596;2023-05-14T10:28:00;31.10;35.50
52963;DHT22;38827;53.024;6.596;2023-05-14T10:30:25;31.40;35.10
52963;DHT22;38827;53.024;6.596;2023-05-14T10:33:05;31.40;34.90
52963;DHT22;38827;53.024;6.596;2023-05-14T10:36:03;31.10;35.30
52963;DHT22;38827;53.024;6.596;2023-05-14T10:38:33;30.90;36.00
52963;DHT22;38827;53.024;6.596;2023-05-14T10:43:27;30.60;36.00
52963;DHT22;38827;53.024;6.596;2023-05-14T10:45:56;30.70;34.00
52963;DHT22;38827;53.024;6.596;2023-05-14T10:48:23;30.70;33.70
52963;DHT22;38827;53.024;6.596;2023-05-14T10:50:50;30.60;33.40
52963;DHT22;38827;53.024;6.596;2023-05-14T10:53:16;30.50;33.40
52963;DHT22;38827;53.024;6.596;2023-05-14T10:55:44;30.40;33.50
52963;DHT22;38827;53.024;6.596;2023-05-14T10:58:10;30.20;32.00
52963;DHT22;38827;53.024;6.596;2023-05-14T11:00:37;30.20;32.60
52963;DHT22;38827;53.024;6.596;2023-05-14T11:03:04;30.20;32.70
52963;DHT22;38827;53.024;6.596;2023-05-14T11:05:31;30.40;32.80
52963;DHT22;38827;53.024;6.596;2023-05-14T11:07:57;30.40;32.10
52963;DHT22;38827;53.024;6.596;2023-05-14T11:10:32;30.40;32.00
52963;DHT22;38827;53.024;6.596;2023-05-14T11:12:58;30.70;31.90
52963;DHT22;38827;53.024;6.596;2023-05-14T11:15:25;31.10;32.00
52963;DHT22;38827;53.024;6.596;2023-05-14T11:17:51;31.70;31.40
52963;DHT22;38827;53.024;6.596;2023-05-14T11:20:17;32.30;30.60
52963;DHT22;38827;53.024;6.596;2023-05-14T11:22:44;32.50;31.60
52963;DHT22;38827;53.024;6.596;2023-05-14T11:25:11;32.50;31.50
52963;DHT22;38827;53.024;6.596;2023-05-14T11:27:40;32.40;30.90
52963;DHT22;38827;53.024;6.596;2023-05-14T11:30:18;32.30;30.90
52963;DHT22;38827;53.024;6.596;2023-05-14T11:32:45;32.30;31.00
52963;DHT22;38827;53.024;6.596;2023-05-14T11:35:11;32.20;30.60
52963;DHT22;38827;53.024;6.596;2023-05-14T11:37:37;32.40;30.30
52963;DHT22;38827;53.024;6.596;2023-05-14T11:40:06;32.70;30.00
52963;DHT22;38827;53.024;6.596;2023-05-14T11:42:33;33.10;29.50
52963;DHT22;38827;53.024;6.596;2023-05-14T11:44:59;33.30;29.10
52963;DHT22;38827;53.024;6.596;2023-05-14T11:47:25;33.60;28.20
52963;DHT22;38827;53.024;6.596;2023-05-14T11:49:51;33.90;29.30
52963;DHT22;38827;53.024;6.596;2023-05-14T11:52:17;33.90;28.00
52963;DHT22;38827;53.024;6.596;2023-05-14T11:54:46;34.00;27.70
52963;DHT22;38827;53.024;6.596;2023-05-14T11:57:14;33.90;27.30
52963;DHT22;38827;53.024;6.596;2023-05-14T11:59:40;33.60;27.10
52963;DHT22;38827;53.024;6.596;2023-05-14T12:02:11;33.20;27.80
52963;DHT22;38827;53.024;6.596;2023-05-14T12:04:37;32.50;28.50
52963;DHT22;38827;53.024;6.596;2023-05-14T12:07:09;31.90;28.40
52963;DHT22;38827;53.024;6.596;2023-05-14T12:09:36;31.50;28.60
52963;DHT22;38827;53.024;6.596;2023-05-14T12:12:09;31.40;28.60
52963;DHT22;38827;53.024;6.596;2023-05-14T12:14:40;31.60;28.70
52963;DHT22;38827;53.024;6.596;2023-05-14T12:17:20;31.90;28.30
52963;DHT22;38827;53.024;6.596;2023-05-14T12:19:48;32.40;27.70
52963;DHT22;38827;53.024;6.596;2023-05-14T12:22:16;32.90;27.30
52963;DHT22;38827;53.024;6.596;2023-05-14T12:24:43;33.20;27.20
52963;DHT22;38827;53.024;6.596;2023-05-14T12:27:16;33.40;26.60
52963;DHT22;38827;53.024;6.596;2023-05-14T12:29:46;33.40;26.40
52963;DHT22;38827;53.024;6.596;2023-05-14T12:32:12;33.10;26.70
52963;DHT22;38827;53.024;6.596;2023-05-14T12:34:46;32.80;27.10
52963;DHT22;38827;53.024;6.596;2023-05-14T12:37:11;32.20;27.20
52963;DHT22;38827;53.024;6.596;2023-05-14T12:39:37;31.70;26.80
52963;DHT22;38827;53.024;6.596;2023-05-14T12:42:03;31.20;26.60
52963;DHT22;38827;53.024;6.596;2023-05-14T12:44:28;30.80;27.00
52963;DHT22;38827;53.024;6.596;2023-05-14T12:46:54;30.60;27.00
52963;DHT22;38827;53.024;6.596;2023-05-14T12:49:20;30.50;27.50
52963;DHT22;38827;53.024;6.596;2023-05-14T12:51:45;30.30;28.40
52963;DHT22;38827;53.024;6.596;2023-05-14T12:54:11;30.00;28.80
52963;DHT22;38827;53.024;6.596;2023-05-14T12:56:38;29.60;29.30
52963;DHT22;38827;53.024;6.596;2023-05-14T12:59:04;29.30;29.40
52963;DHT22;38827;53.024;6.596;2023-05-14T13:01:29;29.10;29.80
52963;DHT22;38827;53.024;6.596;2023-05-14T13:03:55;29.00;29.70
52963;DHT22;38827;53.024;6.596;2023-05-14T13:06:22;28.80;30.10
52963;DHT22;38827;53.024;6.596;2023-05-14T13:08:48;28.70;29.80
52963;DHT22;38827;53.024;6.596;2023-05-14T13:11:14;28.50;30.10
52963;DHT22;38827;53.024;6.596;2023-05-14T13:13:40;28.50;29.80
52963;DHT22;38827;53.024;6.596;2023-05-14T13:16:06;28.50;29.30
52963;DHT22;38827;53.024;6.596;2023-05-14T13:18:31;28.50;29.50
52963;DHT22;38827;53.024;6.596;2023-05-14T13:20:57;28.60;29.60
52963;DHT22;38827;53.024;6.596;2023-05-14T13:23:23;28.60;29.80
52963;DHT22;38827;53.024;6.596;2023-05-14T13:25:48;28.70;29.70
52963;DHT22;38827;53.024;6.596;2023-05-14T13:28:14;28.80;29.80
52963;DHT22;38827;53.024;6.596;2023-05-14T13:30:39;28.90;29.90
52963;DHT22;38827;53.024;6.596;2023-05-14T13:33:05;28.90;30.00
52963;DHT22;38827;53.024;6.596;2023-05-14T13:35:31;28.90;29.70
52963;DHT22;38827;53.024;6.596;2023-05-14T13:37:57;28.90;29.80
52963;DHT22;38827;53.024;6.596;2023-05-14T13:40:22;28.80;29.70
52963;DHT22;38827;53.024;6.596;2023-05-14T13:42:48;28.80;29.60
52963;DHT22;38827;53.024;6.596;2023-05-14T13:45:14;28.80;28.80
52963;DHT22;38827;53.024;6.596;2023-05-14T13:47:40;28.80;29.10
52963;DHT22;38827;53.024;6.596;2023-05-14T13:50:06;28.70;29.70
52963;DHT22;38827;53.024;6.596;2023-05-14T13:52:32;28.70;29.30
52963;DHT22;38827;53.024;6.596;2023-05-14T13:54:57;28.60;29.60
52963;DHT22;38827;53.024;6.596;2023-05-14T13:57:23;28.60;29.30
52963;DHT22;38827;53.024;6.596;2023-05-14T13:59:48;28.60;29.40
52963;DHT22;38827;53.024;6.596;2023-05-14T14:02:14;28.50;29.30
52963;DHT22;38827;53.024;6.596;2023-05-14T14:04:40;28.50;29.60
52963;DHT22;38827;53.024;6.596;2023-05-14T14:07:06;28.40;29.20
52963;DHT22;38827;53.024;6.596;2023-05-14T14:09:31;28.20;29.20
52963;DHT22;38827;53.024;6.596;2023-05-14T14:12:02;28.10;29.00
52963;DHT22;38827;53.024;6.596;2023-05-14T14:14:27;28.10;29.10
52963;DHT22;38827;53.024;6.596;2023-05-14T14:16:53;28.00;29.60
52963;DHT22;38827;53.024;6.596;2023-05-14T14:19:19;27.80;29.50
52963;DHT22;38827;53.024;6.596;2023-05-14T14:21:46;27.80;29.60
52963;DHT22;38827;53.024;6.596;2023-05-14T14:24:11;27.80;29.60
52963;DHT22;38827;53.024;6.596;2023-05-14T14:26:37;27.70;29.90
52963;DHT22;38827;53.024;6.596;2023-05-14T14:29:03;27.80;30.10
52963;DHT22;38827;53.024;6.596;2023-05-14T14:31:28;27.70;30.10
52963;DHT22;38827;53.024;6.596;2023-05-14T14:33:54;27.70;30.20
52963;DHT22;38827;53.024;6.596;2023-05-14T14:36:20;27.80;30.10
52963;DHT22;38827;53.024;6.596;2023-05-14T14:38:45;27.80;30.10
52963;DHT22;38827;53.024;6.596;2023-05-14T14:41:11;27.80;30.00
52963;DHT22;38827;53.024;6.596;2023-05-14T14:43:37;27.60;30.00
52963;DHT22;38827;53.024;6.596;2023-05-14T14:46:04;27.40;30.30
52963;DHT22;38827;53.024;6.596;2023-05-14T14:48:33;27.30;30.50
52963;DHT22;38827;53.024;6.596;2023-05-14T14:51:02;27.20;30.10
52963;DHT22;38827;53.024;6.596;2023-05-14T14:53:28;27.20;30.20
52963;DHT22;38827;53.024;6.596;2023-05-14T14:55:56;27.10;30.40
52963;DHT22;38827;53.024;6.596;2023-05-14T14:58:22;27.00;30.40
52963;DHT22;38827;53.024;6.596;2023-05-14T15:00:52;26.90;30.50
52963;DHT22;38827;53.024;6.596;2023-05-14T15:03:18;26.90;30.10
52963;DHT22;38827;53.024;6.596;2023-05-14T15:05:44;26.80;29.70
52963;DHT22;38827;53.024;6.596;2023-05-14T15:08:10;26.80;29.40
52963;DHT22;38827;53.024;6.596;2023-05-14T15:10:36;26.80;29.40
52963;DHT22;38827;53.024;6.596;2023-05-14T15:13:03;26.90;29.50
52963;DHT22;38827;53.024;6.596;2023-05-14T15:15:29;26.90;29.20
52963;DHT22;38827;53.024;6.596;2023-05-14T15:17:56;26.90;29.30
52963;DHT22;38827;53.024;6.596;2023-05-14T15:20:21;26.90;28.80
52963;DHT22;38827;53.024;6.596;2023-05-14T15:22:47;26.80;29.30
52963;DHT22;38827;53.024;6.596;2023-05-14T15:25:17;26.80;29.80
52963;DHT22;38827;53.024;6.596;2023-05-14T15:27:43;26.70;29.40
52963;DHT22;38827;53.024;6.596;2023-05-14T15:30:09;26.80;29.30
52963;DHT22;38827;53.024;6.596;2023-05-14T15:32:35;26.70;30.00
52963;DHT22;38827;53.024;6.596;2023-05-14T15:35:01;26.60;30.10
52963;DHT22;38827;53.024;6.596;2023-05-14T15:37:26;26.60;29.70